X  Sluiten METAR luchtvaart weer gegevens      EBBR Brussels Airport
Temperatuur
18°C Temperatuur
15°C Dauwpunt
83% Vochtigheid



Wind
19 KM/U
12 MPH
5 M/S
10 KTS



210°
ZZW
Huidig weer

Wat bewolking Wat bewolking
Luchtdruk 1013.92 (hPa) - 29.94 (inHg)
Zicht 5.6 (mijl) - 9 (km)
Vliegveld
Vliegveld code EBBR

Locatie : Brussels Airport
Afstand: 14 (km)

Metar:
EBBR 260820Z 21010KT 9000 FEW010 SCT048 18/15 Q1014 NOSIG

Tijd: 2021-09-26 10:20 CEST